Mahres, Tunisia
Current Conditions -  °F | °C
As of 7:00 PM on Thursday 30 Oct 2014 (Local Time) from DTTX Reporting Station
Few Clouds Few Clouds  
Wind Chill: 68°   Ceiling: Unl
Heat Index: 68°   Visibility: 6mi
Dew Point: 57°   Wind: 6mph
Humidity: 68%   Direction: 50°NE
Pressure: 30.12"   Gusts: NA
Location:  34.53°N, 10.5°E
Report Text: DTTX 301800Z 05005KT 9999 FEW020 20/14 Q1020 NOSIG
Loading
Personal Weather Stations






























Interactive Weather Map
Tropical Storm Tracking
New forecast layout! Learn more

10-Day Weather Forecast

Advertisements
Track Severe Weather on mobile